sensor_id;sensor_type;location;lat;lon;timestamp;pressure;altitude;pressure_sealevel;temperature;humidity
19596;BME280;9945;46.010;8.946;2023-06-04T00:00:26;97305.88;;;20.08;99.68
19596;BME280;9945;46.010;8.946;2023-06-04T00:02:52;97299.16;;;19.98;100.00
19596;BME280;9945;46.010;8.946;2023-06-04T00:05:19;97295.03;;;19.70;100.00
19596;BME280;9945;46.010;8.946;2023-06-04T00:07:48;97291.59;;;19.89;100.00
19596;BME280;9945;46.010;8.946;2023-06-04T00:10:16;97291.59;;;19.89;100.00
19596;BME280;9945;46.010;8.946;2023-06-04T00:12:43;97284.41;;;19.83;100.00
19596;BME280;9945;46.010;8.946;2023-06-04T00:15:10;97281.31;;;19.99;100.00
19596;BME280;9945;46.010;8.946;2023-06-04T00:17:37;97280.94;;;20.02;100.00
19596;BME280;9945;46.010;8.946;2023-06-04T00:20:04;97281.94;;;20.14;100.00
19596;BME280;9945;46.010;8.946;2023-06-04T00:22:31;97273.13;;;20.20;100.00
19596;BME280;9945;46.010;8.946;2023-06-04T00:24:58;97276.44;;;20.16;99.20
19596;BME280;9945;46.010;8.946;2023-06-04T00:27:26;97268.22;;;20.30;96.45
19596;BME280;9945;46.010;8.946;2023-06-04T00:29:53;97266.78;;;20.28;95.20
19596;BME280;9945;46.010;8.946;2023-06-04T00:32:20;97271.09;;;20.29;96.80
19596;BME280;9945;46.010;8.946;2023-06-04T00:34:50;97272.13;;;20.34;95.61
19596;BME280;9945;46.010;8.946;2023-06-04T00:37:17;97276.19;;;20.30;97.18
19596;BME280;9945;46.010;8.946;2023-06-04T00:39:45;97277.84;;;20.31;98.29
19596;BME280;9945;46.010;8.946;2023-06-04T00:42:12;97282.53;;;20.43;96.50
19596;BME280;9945;46.010;8.946;2023-06-04T00:44:40;97285.81;;;20.38;96.61
19596;BME280;9945;46.010;8.946;2023-06-04T00:47:10;97279.47;;;20.32;97.46
19596;BME280;9945;46.010;8.946;2023-06-04T00:49:37;97287.06;;;20.16;98.73
19596;BME280;9945;46.010;8.946;2023-06-04T00:52:04;97285.81;;;20.25;99.87
19596;BME280;9945;46.010;8.946;2023-06-04T00:54:31;97286.66;;;20.38;98.58
19596;BME280;9945;46.010;8.946;2023-06-04T00:56:59;97290.50;;;20.43;97.02
19596;BME280;9945;46.010;8.946;2023-06-04T00:59:26;97290.31;;;20.37;98.56
19596;BME280;9945;46.010;8.946;2023-06-04T01:01:58;97297.28;;;19.53;100.00
19596;BME280;9945;46.010;8.946;2023-06-04T01:04:32;97295.53;;;19.25;100.00
19596;BME280;9945;46.010;8.946;2023-06-04T01:07:03;97296.25;;;19.60;100.00
19596;BME280;9945;46.010;8.946;2023-06-04T01:09:31;97287.47;;;19.67;100.00
19596;BME280;9945;46.010;8.946;2023-06-04T01:11:58;97287.25;;;19.75;100.00
19596;BME280;9945;46.010;8.946;2023-06-04T01:14:27;97286.06;;;19.64;100.00
19596;BME280;9945;46.010;8.946;2023-06-04T01:16:59;97290.94;;;19.67;100.00
19596;BME280;9945;46.010;8.946;2023-06-04T01:19:57;97281.56;;;19.71;100.00
19596;BME280;9945;46.010;8.946;2023-06-04T01:22:37;97283.19;;;19.79;100.00
19596;BME280;9945;46.010;8.946;2023-06-04T01:25:09;97284.16;;;19.38;100.00
19596;BME280;9945;46.010;8.946;2023-06-04T01:27:37;97297.16;;;19.20;100.00
19596;BME280;9945;46.010;8.946;2023-06-04T01:30:07;97293.06;;;19.11;100.00
19596;BME280;9945;46.010;8.946;2023-06-04T01:32:38;97291.50;;;19.43;100.00
19596;BME280;9945;46.010;8.946;2023-06-04T01:35:08;97292.50;;;19.28;100.00
19596;BME280;9945;46.010;8.946;2023-06-04T01:37:35;97302.09;;;19.30;100.00
19596;BME280;9945;46.010;8.946;2023-06-04T01:40:02;97290.47;;;19.37;100.00
19596;BME280;9945;46.010;8.946;2023-06-04T01:42:30;97299.44;;;19.30;100.00
19596;BME280;9945;46.010;8.946;2023-06-04T01:44:57;97297.81;;;19.28;100.00
19596;BME280;9945;46.010;8.946;2023-06-04T01:47:24;97302.50;;;19.33;100.00
19596;BME280;9945;46.010;8.946;2023-06-04T01:49:52;97300.41;;;19.15;100.00
19596;BME280;9945;46.010;8.946;2023-06-04T01:52:19;97293.13;;;19.37;100.00
19596;BME280;9945;46.010;8.946;2023-06-04T01:54:46;97300.28;;;19.43;100.00
19596;BME280;9945;46.010;8.946;2023-06-04T01:57:14;97298.72;;;19.62;100.00
19596;BME280;9945;46.010;8.946;2023-06-04T01:59:40;97293.19;;;19.63;100.00
19596;BME280;9945;46.010;8.946;2023-06-04T02:02:07;97291.97;;;19.53;100.00
19596;BME280;9945;46.010;8.946;2023-06-04T02:04:34;97293.19;;;19.77;100.00
19596;BME280;9945;46.010;8.946;2023-06-04T02:07:03;97293.00;;;19.78;100.00
19596;BME280;9945;46.010;8.946;2023-06-04T02:09:30;97284.59;;;19.68;100.00
19596;BME280;9945;46.010;8.946;2023-06-04T02:11:57;97293.78;;;19.52;100.00
19596;BME280;9945;46.010;8.946;2023-06-04T02:14:23;97290.13;;;19.67;100.00
19596;BME280;9945;46.010;8.946;2023-06-04T02:16:50;97295.03;;;19.76;100.00
19596;BME280;9945;46.010;8.946;2023-06-04T02:19:19;97295.25;;;19.68;100.00
19596;BME280;9945;46.010;8.946;2023-06-04T02:21:46;97297.50;;;19.64;100.00
19596;BME280;9945;46.010;8.946;2023-06-04T02:24:14;97297.91;;;19.68;100.00
19596;BME280;9945;46.010;8.946;2023-06-04T02:26:41;97295.47;;;19.86;100.00
19596;BME280;9945;46.010;8.946;2023-06-04T02:29:08;97299.34;;;19.77;100.00
19596;BME280;9945;46.010;8.946;2023-06-04T02:31:35;97303.03;;;19.89;100.00
19596;BME280;9945;46.010;8.946;2023-06-04T02:34:02;97311.00;;;19.96;100.00
19596;BME280;9945;46.010;8.946;2023-06-04T02:36:30;97316.09;;;19.91;100.00
19596;BME280;9945;46.010;8.946;2023-06-04T02:38:56;97319.56;;;19.91;100.00
19596;BME280;9945;46.010;8.946;2023-06-04T02:41:25;97323.25;;;19.84;100.00
19596;BME280;9945;46.010;8.946;2023-06-04T02:43:51;97332.97;;;19.37;100.00
19596;BME280;9945;46.010;8.946;2023-06-04T02:46:18;97333.75;;;19.31;100.00
19596;BME280;9945;46.010;8.946;2023-06-04T02:48:45;97332.81;;;18.98;100.00
19596;BME280;9945;46.010;8.946;2023-06-04T02:51:12;97334.44;;;18.92;100.00
19596;BME280;9945;46.010;8.946;2023-06-04T02:53:39;97335.78;;;18.81;100.00
19596;BME280;9945;46.010;8.946;2023-06-04T02:56:06;97333.06;;;19.09;100.00
19596;BME280;9945;46.010;8.946;2023-06-04T02:58:34;97332.06;;;19.10;100.00
19596;BME280;9945;46.010;8.946;2023-06-04T03:01:05;97337.50;;;18.96;100.00
19596;BME280;9945;46.010;8.946;2023-06-04T03:03:32;97326.56;;;19.12;100.00
19596;BME280;9945;46.010;8.946;2023-06-04T03:05:59;97335.53;;;19.17;100.00
19596;BME280;9945;46.010;8.946;2023-06-04T03:08:30;97331.03;;;19.11;100.00
19596;BME280;9945;46.010;8.946;2023-06-04T03:10:57;97335.72;;;19.09;100.00
19596;BME280;9945;46.010;8.946;2023-06-04T03:13:23;97331.97;;;18.97;100.00
19596;BME280;9945;46.010;8.946;2023-06-04T03:15:52;97339.59;;;18.66;100.00
19596;BME280;9945;46.010;8.946;2023-06-04T03:18:20;97337.84;;;18.79;100.00
19596;BME280;9945;46.010;8.946;2023-06-04T03:20:48;97343.41;;;18.98;100.00
19596;BME280;9945;46.010;8.946;2023-06-04T03:23:15;97343.84;;;19.01;100.00
19596;BME280;9945;46.010;8.946;2023-06-04T03:25:42;97342.50;;;19.18;100.00
19596;BME280;9945;46.010;8.946;2023-06-04T03:28:09;97342.31;;;19.26;100.00
19596;BME280;9945;46.010;8.946;2023-06-04T03:30:35;97344.41;;;19.38;100.00
19596;BME280;9945;46.010;8.946;2023-06-04T03:33:04;97352.44;;;19.51;100.00
19596;BME280;9945;46.010;8.946;2023-06-04T03:35:30;97347.47;;;19.41;100.00
19596;BME280;9945;46.010;8.946;2023-06-04T03:37:57;97355.03;;;19.44;100.00
19596;BME280;9945;46.010;8.946;2023-06-04T03:40:24;97360.84;;;19.61;100.00
19596;BME280;9945;46.010;8.946;2023-06-04T03:42:51;97359.59;;;19.57;100.00
19596;BME280;9945;46.010;8.946;2023-06-04T03:45:18;97358.00;;;19.69;100.00
19596;BME280;9945;46.010;8.946;2023-06-04T03:47:45;97363.69;;;19.66;100.00
19596;BME280;9945;46.010;8.946;2023-06-04T03:50:13;97370.03;;;19.65;100.00
19596;BME280;9945;46.010;8.946;2023-06-04T03:52:40;97375.56;;;19.63;100.00
19596;BME280;9945;46.010;8.946;2023-06-04T03:55:07;97370.19;;;19.50;100.00
19596;BME280;9945;46.010;8.946;2023-06-04T03:57:34;97378.31;;;19.42;100.00
19596;BME280;9945;46.010;8.946;2023-06-04T04:00:01;97373.47;;;19.52;100.00
19596;BME280;9945;46.010;8.946;2023-06-04T04:02:29;97370.63;;;19.60;100.00
19596;BME280;9945;46.010;8.946;2023-06-04T04:04:56;97369.63;;;19.55;100.00
19596;BME280;9945;46.010;8.946;2023-06-04T04:07:24;97364.50;;;19.53;100.00
19596;BME280;9945;46.010;8.946;2023-06-04T04:09:51;97362.03;;;19.52;100.00
19596;BME280;9945;46.010;8.946;2023-06-04T04:12:18;97365.53;;;19.59;100.00
19596;BME280;9945;46.010;8.946;2023-06-04T04:14:45;97374.75;;;19.76;100.00
19596;BME280;9945;46.010;8.946;2023-06-04T04:17:12;97366.78;;;19.70;100.00
19596;BME280;9945;46.010;8.946;2023-06-04T04:19:39;97372.28;;;19.55;100.00
19596;BME280;9945;46.010;8.946;2023-06-04T04:22:06;97363.91;;;19.64;100.00
19596;BME280;9945;46.010;8.946;2023-06-04T04:24:35;97368.41;;;19.64;100.00
19596;BME280;9945;46.010;8.946;2023-06-04T04:27:03;97363.72;;;19.73;100.00
19596;BME280;9945;46.010;8.946;2023-06-04T04:29:31;97364.03;;;19.43;100.00
19596;BME280;9945;46.010;8.946;2023-06-04T04:32:00;97356.91;;;19.50;100.00
19596;BME280;9945;46.010;8.946;2023-06-04T04:34:28;97359.16;;;19.47;100.00
19596;BME280;9945;46.010;8.946;2023-06-04T04:36:58;97359.16;;;19.47;100.00
19596;BME280;9945;46.010;8.946;2023-06-04T04:39:25;97354.03;;;19.45;100.00
19596;BME280;9945;46.010;8.946;2023-06-04T04:41:53;97350.84;;;19.63;100.00
19596;BME280;9945;46.010;8.946;2023-06-04T04:44:20;97347.75;;;19.59;100.00
19596;BME280;9945;46.010;8.946;2023-06-04T04:46:48;97344.88;;;19.48;100.00
19596;BME280;9945;46.010;8.946;2023-06-04T04:49:14;97342.78;;;19.43;100.00
19596;BME280;9945;46.010;8.946;2023-06-04T04:51:41;97345.81;;;19.40;100.00
19596;BME280;9945;46.010;8.946;2023-06-04T04:54:08;97348.47;;;19.40;100.00
19596;BME280;9945;46.010;8.946;2023-06-04T04:56:35;97346.63;;;19.41;100.00
19596;BME280;9945;46.010;8.946;2023-06-04T04:59:03;97344.38;;;19.31;100.00
19596;BME280;9945;46.010;8.946;2023-06-04T05:01:30;97343.59;;;19.37;100.00
19596;BME280;9945;46.010;8.946;2023-06-04T05:03:57;97334.81;;;19.37;100.00
19596;BME280;9945;46.010;8.946;2023-06-04T05:06:24;97325.41;;;19.41;100.00
19596;BME280;9945;46.010;8.946;2023-06-04T05:08:51;97329.28;;;19.38;100.00
19596;BME280;9945;46.010;8.946;2023-06-04T05:11:19;97328.19;;;19.13;100.00
19596;BME280;9945;46.010;8.946;2023-06-04T05:13:46;97320.44;;;19.24;100.00
19596;BME280;9945;46.010;8.946;2023-06-04T05:16:15;97326.41;;;19.40;100.00
19596;BME280;9945;46.010;8.946;2023-06-04T05:18:41;97327.41;;;19.32;100.00
19596;BME280;9945;46.010;8.946;2023-06-04T05:21:10;97330.94;;;19.46;100.00
19596;BME280;9945;46.010;8.946;2023-06-04T05:23:38;97337.84;;;19.40;100.00
19596;BME280;9945;46.010;8.946;2023-06-04T05:26:05;97332.50;;;19.14;100.00
19596;BME280;9945;46.010;8.946;2023-06-04T05:28:32;97339.28;;;18.88;100.00
19596;BME280;9945;46.010;8.946;2023-06-04T05:30:59;97343.34;;;18.78;100.00
19596;BME280;9945;46.010;8.946;2023-06-04T05:33:29;97346.69;;;19.00;100.00
19596;BME280;9945;46.010;8.946;2023-06-04T05:35:56;97345.34;;;18.41;100.00
19596;BME280;9945;46.010;8.946;2023-06-04T05:38:25;97349.63;;;18.42;100.00
19596;BME280;9945;46.010;8.946;2023-06-04T05:40:53;97352.03;;;17.88;100.00
19596;BME280;9945;46.010;8.946;2023-06-04T05:43:21;97348.59;;;17.66;100.00
19596;BME280;9945;46.010;8.946;2023-06-04T05:45:48;97357.78;;;17.70;100.00
19596;BME280;9945;46.010;8.946;2023-06-04T05:48:15;97347.03;;;17.57;100.00
19596;BME280;9945;46.010;8.946;2023-06-04T05:50:43;97353.94;;;17.73;100.00
19596;BME280;9945;46.010;8.946;2023-06-04T05:53:12;97343.72;;;17.70;100.00
19596;BME280;9945;46.010;8.946;2023-06-04T05:55:39;97345.41;;;17.99;100.00
19596;BME280;9945;46.010;8.946;2023-06-04T05:58:06;97346.13;;;18.35;100.00
19596;BME280;9945;46.010;8.946;2023-06-04T06:00:33;97340.31;;;18.53;100.00
19596;BME280;9945;46.010;8.946;2023-06-04T06:03:00;97345.53;;;18.68;100.00
19596;BME280;9945;46.010;8.946;2023-06-04T06:05:27;97341.91;;;18.75;100.00
19596;BME280;9945;46.010;8.946;2023-06-04T06:07:55;97347.22;;;18.82;100.00
19596;BME280;9945;46.010;8.946;2023-06-04T06:10:22;97346.41;;;18.81;100.00
19596;BME280;9945;46.010;8.946;2023-06-04T06:12:49;97347.22;;;18.82;100.00
19596;BME280;9945;46.010;8.946;2023-06-04T06:15:16;97350.78;;;18.96;100.00
19596;BME280;9945;46.010;8.946;2023-06-04T06:17:43;97344.69;;;19.02;100.00
19596;BME280;9945;46.010;8.946;2023-06-04T06:20:10;97350.00;;;19.02;100.00
19596;BME280;9945;46.010;8.946;2023-06-04T06:22:37;97345.75;;;19.14;100.00
19596;BME280;9945;46.010;8.946;2023-06-04T06:25:06;97350.25;;;19.13;100.00
19596;BME280;9945;46.010;8.946;2023-06-04T06:27:33;97348.59;;;19.12;100.00
19596;BME280;9945;46.010;8.946;2023-06-04T06:30:00;97356.31;;;19.07;100.00
19596;BME280;9945;46.010;8.946;2023-06-04T06:32:27;97354.13;;;19.11;100.00
19596;BME280;9945;46.010;8.946;2023-06-04T06:34:54;97356.53;;;19.06;100.00
19596;BME280;9945;46.010;8.946;2023-06-04T06:37:21;97358.97;;;19.07;100.00
19596;BME280;9945;46.010;8.946;2023-06-04T06:39:47;97365.97;;;19.15;100.00
19596;BME280;9945;46.010;8.946;2023-06-04T06:42:16;97370.88;;;19.18;100.00
19596;BME280;9945;46.010;8.946;2023-06-04T06:44:44;97375.97;;;19.13;100.00
19596;BME280;9945;46.010;8.946;2023-06-04T06:47:11;97372.16;;;19.28;100.00
19596;BME280;9945;46.010;8.946;2023-06-04T06:49:39;97369.69;;;19.20;100.00
19596;BME280;9945;46.010;8.946;2023-06-04T06:52:06;97370.84;;;19.11;100.00
19596;BME280;9945;46.010;8.946;2023-06-04T06:54:32;97369.97;;;18.98;100.00
19596;BME280;9945;46.010;8.946;2023-06-04T06:56:59;97378.38;;;19.01;100.00
19596;BME280;9945;46.010;8.946;2023-06-04T06:59:28;97374.34;;;19.12;100.00
19596;BME280;9945;46.010;8.946;2023-06-04T07:01:55;97373.25;;;19.06;100.00
19596;BME280;9945;46.010;8.946;2023-06-04T07:04:22;97375.56;;;19.16;100.00
19596;BME280;9945;46.010;8.946;2023-06-04T07:06:48;97374.13;;;19.13;100.00
19596;BME280;9945;46.010;8.946;2023-06-04T07:09:15;97379.84;;;19.17;100.00
19596;BME280;9945;46.010;8.946;2023-06-04T07:11:42;97378.56;;;19.00;100.00
19596;BME280;9945;46.010;8.946;2023-06-04T07:14:09;97380.53;;;18.84;100.00
19596;BME280;9945;46.010;8.946;2023-06-04T07:16:38;97377.84;;;18.78;100.00
19596;BME280;9945;46.010;8.946;2023-06-04T07:19:05;97384.84;;;18.92;100.00
19596;BME280;9945;46.010;8.946;2023-06-04T07:21:31;97389.84;;;19.15;100.00
19596;BME280;9945;46.010;8.946;2023-06-04T07:23:58;97387.84;;;19.23;100.00
19596;BME280;9945;46.010;8.946;2023-06-04T07:26:25;97390.13;;;19.33;100.00
19596;BME280;9945;46.010;8.946;2023-06-04T07:28:56;97380.59;;;19.45;100.00
19596;BME280;9945;46.010;8.946;2023-06-04T07:31:23;97388.63;;;19.11;100.00
19596;BME280;9945;46.010;8.946;2023-06-04T07:33:51;97388.13;;;18.94;100.00
19596;BME280;9945;46.010;8.946;2023-06-04T07:36:18;97392.56;;;19.21;100.00
19596;BME280;9945;46.010;8.946;2023-06-04T07:38:46;97388.91;;;19.29;100.00
19596;BME280;9945;46.010;8.946;2023-06-04T07:41:12;97391.38;;;19.31;100.00
19596;BME280;9945;46.010;8.946;2023-06-04T07:43:39;97397.91;;;19.41;100.00
19596;BME280;9945;46.010;8.946;2023-06-04T07:46:07;97406.91;;;19.40;100.00
19596;BME280;9945;46.010;8.946;2023-06-04T07:48:34;97397.09;;;19.41;100.00
19596;BME280;9945;46.010;8.946;2023-06-04T07:51:03;97409.66;;;19.53;100.00
19596;BME280;9945;46.010;8.946;2023-06-04T07:53:30;97407.63;;;19.55;100.00
19596;BME280;9945;46.010;8.946;2023-06-04T07:55:57;97407.00;;;19.60;100.00
19596;BME280;9945;46.010;8.946;2023-06-04T07:58:24;97407.84;;;19.67;100.00
19596;BME280;9945;46.010;8.946;2023-06-04T08:00:52;97411.16;;;19.82;100.00
19596;BME280;9945;46.010;8.946;2023-06-04T08:03:19;97411.13;;;19.76;100.00
19596;BME280;9945;46.010;8.946;2023-06-04T08:05:46;97426.13;;;19.90;100.00
19596;BME280;9945;46.010;8.946;2023-06-04T08:08:14;97419.41;;;20.07;100.00
19596;BME280;9945;46.010;8.946;2023-06-04T08:10:41;97424.09;;;20.18;100.00
19596;BME280;9945;46.010;8.946;2023-06-04T08:13:08;97423.06;;;20.19;100.00
19596;BME280;9945;46.010;8.946;2023-06-04T08:15:35;97420.03;;;20.22;100.00
19596;BME280;9945;46.010;8.946;2023-06-04T08:18:02;97421.47;;;20.31;100.00
19596;BME280;9945;46.010;8.946;2023-06-04T08:20:29;97427.59;;;20.32;100.00
19596;BME280;9945;46.010;8.946;2023-06-04T08:22:56;97426.69;;;19.79;100.00
19596;BME280;9945;46.010;8.946;2023-06-04T08:25:24;97424.78;;;19.59;100.00
19596;BME280;9945;46.010;8.946;2023-06-04T08:27:52;97429.06;;;19.47;100.00
19596;BME280;9945;46.010;8.946;2023-06-04T08:30:18;97436.84;;;19.55;100.00
19596;BME280;9945;46.010;8.946;2023-06-04T08:32:45;97432.34;;;19.56;100.00
19596;BME280;9945;46.010;8.946;2023-06-04T08:35:12;97436.13;;;19.88;100.00
19596;BME280;9945;46.010;8.946;2023-06-04T08:37:39;97435.06;;;19.82;100.00
19596;BME280;9945;46.010;8.946;2023-06-04T08:40:08;97438.72;;;19.68;100.00
19596;BME280;9945;46.010;8.946;2023-06-04T08:42:41;97443.84;;;19.70;100.00
19596;BME280;9945;46.010;8.946;2023-06-04T08:45:10;97447.16;;;19.91;100.00
19596;BME280;9945;46.010;8.946;2023-06-04T08:47:40;97450.97;;;19.62;100.00
19596;BME280;9945;46.010;8.946;2023-06-04T08:50:10;97448.19;;;19.43;100.00
19596;BME280;9945;46.010;8.946;2023-06-04T08:52:38;97449.63;;;19.45;100.00
19596;BME280;9945;46.010;8.946;2023-06-04T08:55:08;97449.34;;;19.68;100.00
19596;BME280;9945;46.010;8.946;2023-06-04T08:57:38;97459.03;;;20.02;100.00
19596;BME280;9945;46.010;8.946;2023-06-04T09:00:07;97457.06;;;20.24;100.00
19596;BME280;9945;46.010;8.946;2023-06-04T09:02:35;97457.84;;;20.18;100.00
19596;BME280;9945;46.010;8.946;2023-06-04T09:05:05;97460.09;;;20.27;100.00
19596;BME280;9945;46.010;8.946;2023-06-04T09:07:36;97457.69;;;20.46;100.00
19596;BME280;9945;46.010;8.946;2023-06-04T09:10:04;97457.72;;;20.39;100.00
19596;BME280;9945;46.010;8.946;2023-06-04T09:12:36;97458.94;;;20.56;100.00
19596;BME280;9945;46.010;8.946;2023-06-04T09:15:05;97461.78;;;20.68;100.00
19596;BME280;9945;46.010;8.946;2023-06-04T09:17:32;97467.94;;;20.88;100.00
19596;BME280;9945;46.010;8.946;2023-06-04T09:19:59;97466.69;;;20.97;100.00
19596;BME280;9945;46.010;8.946;2023-06-04T09:22:32;97468.31;;;20.98;100.00
19596;BME280;9945;46.010;8.946;2023-06-04T09:25:00;97471.19;;;21.03;100.00
19596;BME280;9945;46.010;8.946;2023-06-04T09:27:26;97472.59;;;21.12;100.00
19596;BME280;9945;46.010;8.946;2023-06-04T09:29:55;97472.00;;;21.24;100.00
19596;BME280;9945;46.010;8.946;2023-06-04T09:32:24;97475.50;;;21.18;100.00
19596;BME280;9945;46.010;8.946;2023-06-04T09:34:52;97474.69;;;21.17;100.00
19596;BME280;9945;46.010;8.946;2023-06-04T09:37:19;97470.13;;;21.31;100.00
19596;BME280;9945;46.010;8.946;2023-06-04T09:39:53;97475.69;;;21.23;100.00
19596;BME280;9945;46.010;8.946;2023-06-04T09:42:20;97473.84;;;20.97;100.00
19596;BME280;9945;46.010;8.946;2023-06-04T09:44:48;97478.78;;;20.60;100.00
19596;BME280;9945;46.010;8.946;2023-06-04T09:47:15;97479.13;;;20.18;100.00
19596;BME280;9945;46.010;8.946;2023-06-04T09:49:43;97468.22;;;19.93;100.00
19596;BME280;9945;46.010;8.946;2023-06-04T09:52:11;97473.16;;;19.96;100.00
19596;BME280;9945;46.010;8.946;2023-06-04T09:54:40;97465.47;;;20.34;100.00
19596;BME280;9945;46.010;8.946;2023-06-04T09:57:14;97471.88;;;19.85;100.00
19596;BME280;9945;46.010;8.946;2023-06-04T09:59:43;97474.09;;;19.75;100.00
19596;BME280;9945;46.010;8.946;2023-06-04T10:02:11;97474.22;;;20.21;100.00
19596;BME280;9945;46.010;8.946;2023-06-04T10:04:40;97476.88;;;20.21;100.00
19596;BME280;9945;46.010;8.946;2023-06-04T10:07:09;97475.75;;;19.76;100.00
19596;BME280;9945;46.010;8.946;2023-06-04T10:09:38;97477.38;;;19.77;100.00
19596;BME280;9945;46.010;8.946;2023-06-04T10:12:13;97479.94;;;19.57;100.00
19596;BME280;9945;46.010;8.946;2023-06-04T10:14:47;97481.63;;;19.65;100.00
19596;BME280;9945;46.010;8.946;2023-06-04T10:17:18;97476.19;;;19.93;100.00
19596;BME280;9945;46.010;8.946;2023-06-04T10:19:47;97478.16;;;19.64;100.00
19596;BME280;9945;46.010;8.946;2023-06-04T10:22:18;97475.09;;;19.74;100.00
19596;BME280;9945;46.010;8.946;2023-06-04T10:24:45;97476.25;;;20.13;100.00
19596;BME280;9945;46.010;8.946;2023-06-04T10:27:12;97475.44;;;20.12;100.00
19596;BME280;9945;46.010;8.946;2023-06-04T10:29:39;97477.28;;;20.12;100.00
19596;BME280;9945;46.010;8.946;2023-06-04T10:32:06;97474.03;;;20.23;100.00
19596;BME280;9945;46.010;8.946;2023-06-04T10:34:34;97475.94;;;20.55;100.00
19596;BME280;9945;46.010;8.946;2023-06-04T10:37:03;97478.34;;;20.24;100.00
19596;BME280;9945;46.010;8.946;2023-06-04T10:39:32;97479.81;;;20.46;100.00
19596;BME280;9945;46.010;8.946;2023-06-04T10:42:00;97483.91;;;20.55;100.00
19596;BME280;9945;46.010;8.946;2023-06-04T10:44:28;97482.88;;;20.76;100.00
19596;BME280;9945;46.010;8.946;2023-06-04T10:46:55;97480.00;;;20.97;100.00
19596;BME280;9945;46.010;8.946;2023-06-04T10:49:28;97477.94;;;21.19;98.37
19596;BME280;9945;46.010;8.946;2023-06-04T10:51:56;97473.63;;;21.18;95.90
19596;BME280;9945;46.010;8.946;2023-06-04T10:54:29;97470.09;;;21.37;91.75
19596;BME280;9945;46.010;8.946;2023-06-04T10:56:57;97466.38;;;21.51;92.40
19596;BME280;9945;46.010;8.946;2023-06-04T10:59:24;97464.09;;;21.55;92.19
19596;BME280;9945;46.010;8.946;2023-06-04T11:01:50;97467.81;;;21.47;92.54
19596;BME280;9945;46.010;8.946;2023-06-04T11:04:21;97465.03;;;21.74;93.38
19596;BME280;9945;46.010;8.946;2023-06-04T11:07:00;97458.53;;;21.63;93.68
19596;BME280;9945;46.010;8.946;2023-06-04T11:09:28;97459.31;;;21.77;91.98
19596;BME280;9945;46.010;8.946;2023-06-04T11:11:58;97464.97;;;21.87;91.11
19596;BME280;9945;46.010;8.946;2023-06-04T11:14:25;97468.00;;;21.59;95.96
19596;BME280;9945;46.010;8.946;2023-06-04T11:16:52;97472.38;;;21.14;97.16
19596;BME280;9945;46.010;8.946;2023-06-04T11:19:19;97474.06;;;21.08;100.00
19596;BME280;9945;46.010;8.946;2023-06-04T11:21:47;97472.56;;;21.39;99.24
19596;BME280;9945;46.010;8.946;2023-06-04T11:24:15;97473.06;;;20.90;100.00
19596;BME280;9945;46.010;8.946;2023-06-04T11:26:42;97471.59;;;21.00;100.00
19596;BME280;9945;46.010;8.946;2023-06-04T11:29:11;97478.13;;;21.04;98.98
19596;BME280;9945;46.010;8.946;2023-06-04T11:31:42;97471.38;;;21.08;98.93
19596;BME280;9945;46.010;8.946;2023-06-04T11:34:09;97471.81;;;20.99;93.78
19596;BME280;9945;46.010;8.946;2023-06-04T11:36:37;97460.91;;;21.27;93.31
19596;BME280;9945;46.010;8.946;2023-06-04T11:39:05;97453.25;;;21.50;92.12
19596;BME280;9945;46.010;8.946;2023-06-04T11:41:33;97444.16;;;21.64;90.51
19596;BME280;9945;46.010;8.946;2023-06-04T11:44:04;97439.97;;;21.81;88.48
19596;BME280;9945;46.010;8.946;2023-06-04T11:46:34;97444.66;;;21.48;90.49
19596;BME280;9945;46.010;8.946;2023-06-04T11:49:01;97445.59;;;21.67;89.22
19596;BME280;9945;46.010;8.946;2023-06-04T11:51:30;97452.06;;;21.39;90.89
19596;BME280;9945;46.010;8.946;2023-06-04T11:53:57;97443.47;;;21.31;90.35
19596;BME280;9945;46.010;8.946;2023-06-04T11:56:24;97435.53;;;21.04;88.77
19596;BME280;9945;46.010;8.946;2023-06-04T11:58:54;97439.44;;;21.08;89.97
19596;BME280;9945;46.010;8.946;2023-06-04T12:01:21;97431.41;;;21.22;86.83
19596;BME280;9945;46.010;8.946;2023-06-04T12:03:49;97429.56;;;21.15;87.95
19596;BME280;9945;46.010;8.946;2023-06-04T12:06:18;97419.31;;;21.12;87.05
19596;BME280;9945;46.010;8.946;2023-06-04T12:08:50;97411.94;;;21.28;85.70
19596;BME280;9945;46.010;8.946;2023-06-04T12:11:25;97417.66;;;21.31;86.72
19596;BME280;9945;46.010;8.946;2023-06-04T12:13:53;97418.44;;;21.38;86.86
19596;BME280;9945;46.010;8.946;2023-06-04T12:16:20;97420.56;;;21.23;88.96
19596;BME280;9945;46.010;8.946;2023-06-04T12:18:47;97421.81;;;21.07;93.29
19596;BME280;9945;46.010;8.946;2023-06-04T12:21:21;97410.09;;;21.15;89.71
19596;BME280;9945;46.010;8.946;2023-06-04T12:23:53;97416.06;;;21.04;87.20
19596;BME280;9945;46.010;8.946;2023-06-04T12:26:22;97407.06;;;21.05;86.75
19596;BME280;9945;46.010;8.946;2023-06-04T12:29:00;97406.41;;;21.16;88.18
19596;BME280;9945;46.010;8.946;2023-06-04T12:31:29;97407.13;;;21.49;86.79
19596;BME280;9945;46.010;8.946;2023-06-04T12:33:59;97391.88;;;21.25;87.04
19596;BME280;9945;46.010;8.946;2023-06-04T12:36:27;97394.31;;;21.27;89.67
19596;BME280;9945;46.010;8.946;2023-06-04T12:38:58;97390.09;;;20.99;89.67
19596;BME280;9945;46.010;8.946;2023-06-04T12:41:26;97383.28;;;21.10;90.95
19596;BME280;9945;46.010;8.946;2023-06-04T12:43:53;97382.75;;;21.46;89.14
19596;BME280;9945;46.010;8.946;2023-06-04T12:46:20;97377.38;;;21.52;88.42
19596;BME280;9945;46.010;8.946;2023-06-04T12:48:47;97382.63;;;21.28;89.35
19596;BME280;9945;46.010;8.946;2023-06-04T12:51:14;97370.50;;;21.38;89.20
19596;BME280;9945;46.010;8.946;2023-06-04T12:53:42;97366.88;;;21.64;89.27
19596;BME280;9945;46.010;8.946;2023-06-04T12:56:10;97360.25;;;21.42;88.67
19596;BME280;9945;46.010;8.946;2023-06-04T12:58:37;97365.56;;;21.35;89.56
19596;BME280;9945;46.010;8.946;2023-06-04T13:01:04;97363.06;;;21.47;89.35
19596;BME280;9945;46.010;8.946;2023-06-04T13:03:31;97357.50;;;21.86;87.49
19596;BME280;9945;46.010;8.946;2023-06-04T13:05:58;97343.59;;;21.84;85.62